sensor_id;sensor_type;location;lat;lon;timestamp;P1;durP1;ratioP1;P2;durP2;ratioP2
30617;SDS011;17384;51.214;9.202;2023-09-19T00:01:41;2.55;;;1.33;;
30617;SDS011;17384;51.214;9.202;2023-09-19T00:04:09;6.65;;;1.95;;
30617;SDS011;17384;51.214;9.202;2023-09-19T00:06:35;2.47;;;1.40;;
30617;SDS011;17384;51.214;9.202;2023-09-19T00:09:01;2.55;;;1.75;;
30617;SDS011;17384;51.214;9.202;2023-09-19T00:11:27;2.88;;;1.27;;
30617;SDS011;17384;51.214;9.202;2023-09-19T00:13:54;1.98;;;1.67;;
30617;SDS011;17384;51.214;9.202;2023-09-19T00:16:19;3.50;;;1.60;;
30617;SDS011;17384;51.214;9.202;2023-09-19T00:18:45;2.63;;;1.88;;
30617;SDS011;17384;51.214;9.202;2023-09-19T00:21:11;4.40;;;2.42;;
30617;SDS011;17384;51.214;9.202;2023-09-19T00:23:37;3.53;;;2.08;;
30617;SDS011;17384;51.214;9.202;2023-09-19T00:26:03;3.95;;;1.83;;
30617;SDS011;17384;51.214;9.202;2023-09-19T00:28:29;3.05;;;1.90;;
30617;SDS011;17384;51.214;9.202;2023-09-19T00:30:55;3.72;;;2.13;;
30617;SDS011;17384;51.214;9.202;2023-09-19T00:33:21;2.55;;;1.80;;
30617;SDS011;17384;51.214;9.202;2023-09-19T00:35:50;3.20;;;1.60;;
30617;SDS011;17384;51.214;9.202;2023-09-19T00:38:17;3.35;;;1.85;;
30617;SDS011;17384;51.214;9.202;2023-09-19T00:40:46;2.88;;;1.95;;
30617;SDS011;17384;51.214;9.202;2023-09-19T00:43:12;3.15;;;1.73;;
30617;SDS011;17384;51.214;9.202;2023-09-19T00:45:38;4.72;;;2.33;;
30617;SDS011;17384;51.214;9.202;2023-09-19T00:48:07;8.43;;;2.13;;
30617;SDS011;17384;51.214;9.202;2023-09-19T00:50:34;5.60;;;2.35;;
30617;SDS011;17384;51.214;9.202;2023-09-19T00:53:00;7.63;;;2.63;;
30617;SDS011;17384;51.214;9.202;2023-09-19T00:55:28;4.13;;;1.98;;
30617;SDS011;17384;51.214;9.202;2023-09-19T00:57:55;4.63;;;2.03;;
30617;SDS011;17384;51.214;9.202;2023-09-19T01:00:21;5.78;;;2.28;;
30617;SDS011;17384;51.214;9.202;2023-09-19T01:02:48;3.97;;;2.05;;
30617;SDS011;17384;51.214;9.202;2023-09-19T01:05:13;5.80;;;2.75;;
30617;SDS011;17384;51.214;9.202;2023-09-19T01:07:39;4.22;;;2.63;;
30617;SDS011;17384;51.214;9.202;2023-09-19T01:10:10;3.15;;;2.00;;
30617;SDS011;17384;51.214;9.202;2023-09-19T01:18:02;2.47;;;1.88;;
30617;SDS011;17384;51.214;9.202;2023-09-19T01:21:05;4.93;;;2.05;;
30617;SDS011;17384;51.214;9.202;2023-09-19T01:26:37;5.03;;;2.15;;
30617;SDS011;17384;51.214;9.202;2023-09-19T01:32:04;3.63;;;1.90;;
30617;SDS011;17384;51.214;9.202;2023-09-19T01:34:45;11.50;;;2.17;;
30617;SDS011;17384;51.214;9.202;2023-09-19T01:37:15;3.95;;;2.03;;
30617;SDS011;17384;51.214;9.202;2023-09-19T01:39:48;5.75;;;1.95;;
30617;SDS011;17384;51.214;9.202;2023-09-19T01:45:11;3.80;;;2.10;;
30617;SDS011;17384;51.214;9.202;2023-09-19T01:48:00;3.13;;;2.10;;
30617;SDS011;17384;51.214;9.202;2023-09-19T01:50:41;3.50;;;2.38;;
30617;SDS011;17384;51.214;9.202;2023-09-19T01:53:15;5.68;;;2.20;;
30617;SDS011;17384;51.214;9.202;2023-09-19T01:55:49;4.30;;;2.33;;
30617;SDS011;17384;51.214;9.202;2023-09-19T02:01:08;9.40;;;2.80;;
30617;SDS011;17384;51.214;9.202;2023-09-19T02:03:38;4.85;;;2.60;;
30617;SDS011;17384;51.214;9.202;2023-09-19T02:06:05;3.25;;;2.47;;
30617;SDS011;17384;51.214;9.202;2023-09-19T02:08:36;3.45;;;2.30;;
30617;SDS011;17384;51.214;9.202;2023-09-19T02:11:02;5.10;;;2.42;;
30617;SDS011;17384;51.214;9.202;2023-09-19T02:13:28;5.60;;;2.33;;
30617;SDS011;17384;51.214;9.202;2023-09-19T02:15:55;12.70;;;4.30;;
30617;SDS011;17384;51.214;9.202;2023-09-19T02:18:21;5.72;;;2.35;;
30617;SDS011;17384;51.214;9.202;2023-09-19T02:20:46;7.18;;;2.78;;
30617;SDS011;17384;51.214;9.202;2023-09-19T02:23:13;7.85;;;2.70;;
30617;SDS011;17384;51.214;9.202;2023-09-19T02:25:39;4.65;;;2.67;;
30617;SDS011;17384;51.214;9.202;2023-09-19T02:28:05;4.22;;;2.60;;
30617;SDS011;17384;51.214;9.202;2023-09-19T02:30:31;8.48;;;2.47;;
30617;SDS011;17384;51.214;9.202;2023-09-19T02:32:57;10.60;;;3.13;;
30617;SDS011;17384;51.214;9.202;2023-09-19T02:35:22;8.02;;;2.75;;
30617;SDS011;17384;51.214;9.202;2023-09-19T02:37:48;7.05;;;3.05;;
30617;SDS011;17384;51.214;9.202;2023-09-19T02:40:14;8.57;;;2.95;;
30617;SDS011;17384;51.214;9.202;2023-09-19T02:42:52;6.38;;;3.03;;
30617;SDS011;17384;51.214;9.202;2023-09-19T02:45:19;8.65;;;2.78;;
30617;SDS011;17384;51.214;9.202;2023-09-19T02:47:45;8.55;;;3.40;;
30617;SDS011;17384;51.214;9.202;2023-09-19T02:50:12;8.93;;;3.35;;
30617;SDS011;17384;51.214;9.202;2023-09-19T02:52:41;5.97;;;3.55;;
30617;SDS011;17384;51.214;9.202;2023-09-19T02:55:13;8.93;;;4.05;;
30617;SDS011;17384;51.214;9.202;2023-09-19T02:57:45;9.40;;;3.17;;
30617;SDS011;17384;51.214;9.202;2023-09-19T03:00:15;5.45;;;3.08;;
30617;SDS011;17384;51.214;9.202;2023-09-19T03:02:41;9.85;;;3.45;;
30617;SDS011;17384;51.214;9.202;2023-09-19T03:05:08;6.80;;;3.25;;
30617;SDS011;17384;51.214;9.202;2023-09-19T03:07:36;8.95;;;3.50;;
30617;SDS011;17384;51.214;9.202;2023-09-19T03:10:03;8.15;;;3.55;;
30617;SDS011;17384;51.214;9.202;2023-09-19T03:12:30;10.27;;;3.10;;
30617;SDS011;17384;51.214;9.202;2023-09-19T03:14:56;7.72;;;3.05;;
30617;SDS011;17384;51.214;9.202;2023-09-19T03:17:22;6.13;;;2.92;;
30617;SDS011;17384;51.214;9.202;2023-09-19T03:19:47;9.40;;;3.47;;
30617;SDS011;17384;51.214;9.202;2023-09-19T03:22:14;4.70;;;2.85;;
30617;SDS011;17384;51.214;9.202;2023-09-19T03:24:39;4.75;;;3.20;;
30617;SDS011;17384;51.214;9.202;2023-09-19T03:27:05;11.35;;;4.40;;
30617;SDS011;17384;51.214;9.202;2023-09-19T03:29:31;6.47;;;3.08;;
30617;SDS011;17384;51.214;9.202;2023-09-19T03:31:56;6.03;;;3.13;;
30617;SDS011;17384;51.214;9.202;2023-09-19T03:34:21;8.82;;;3.22;;
30617;SDS011;17384;51.214;9.202;2023-09-19T03:36:47;5.05;;;3.05;;
30617;SDS011;17384;51.214;9.202;2023-09-19T03:39:12;6.40;;;2.97;;
30617;SDS011;17384;51.214;9.202;2023-09-19T03:41:40;7.45;;;3.08;;
30617;SDS011;17384;51.214;9.202;2023-09-19T03:44:05;8.73;;;3.20;;
30617;SDS011;17384;51.214;9.202;2023-09-19T03:46:31;7.45;;;2.55;;
30617;SDS011;17384;51.214;9.202;2023-09-19T03:48:57;10.35;;;2.83;;
30617;SDS011;17384;51.214;9.202;2023-09-19T03:51:22;8.65;;;2.92;;
30617;SDS011;17384;51.214;9.202;2023-09-19T03:53:48;9.48;;;3.35;;
30617;SDS011;17384;51.214;9.202;2023-09-19T03:56:16;7.78;;;2.70;;
30617;SDS011;17384;51.214;9.202;2023-09-19T03:58:42;7.32;;;3.22;;
30617;SDS011;17384;51.214;9.202;2023-09-19T04:01:07;7.93;;;3.60;;
30617;SDS011;17384;51.214;9.202;2023-09-19T04:03:33;7.38;;;3.10;;
30617;SDS011;17384;51.214;9.202;2023-09-19T04:06:12;8.32;;;3.47;;
30617;SDS011;17384;51.214;9.202;2023-09-19T04:08:42;4.32;;;2.97;;
30617;SDS011;17384;51.214;9.202;2023-09-19T04:11:09;5.47;;;2.88;;
30617;SDS011;17384;51.214;9.202;2023-09-19T04:13:35;5.95;;;3.17;;
30617;SDS011;17384;51.214;9.202;2023-09-19T04:16:01;10.20;;;3.40;;
30617;SDS011;17384;51.214;9.202;2023-09-19T04:18:31;7.10;;;3.08;;
30617;SDS011;17384;51.214;9.202;2023-09-19T04:20:58;7.05;;;3.17;;
30617;SDS011;17384;51.214;9.202;2023-09-19T04:23:27;6.72;;;3.55;;
30617;SDS011;17384;51.214;9.202;2023-09-19T04:25:53;7.88;;;2.65;;
30617;SDS011;17384;51.214;9.202;2023-09-19T04:28:19;8.90;;;3.20;;
30617;SDS011;17384;51.214;9.202;2023-09-19T04:30:44;9.38;;;3.10;;
30617;SDS011;17384;51.214;9.202;2023-09-19T04:33:09;7.30;;;2.78;;
30617;SDS011;17384;51.214;9.202;2023-09-19T04:35:35;12.52;;;3.25;;
30617;SDS011;17384;51.214;9.202;2023-09-19T04:38:00;12.32;;;3.00;;
30617;SDS011;17384;51.214;9.202;2023-09-19T04:40:26;7.57;;;3.08;;
30617;SDS011;17384;51.214;9.202;2023-09-19T04:42:54;13.32;;;3.28;;
30617;SDS011;17384;51.214;9.202;2023-09-19T04:45:25;8.13;;;2.45;;
30617;SDS011;17384;51.214;9.202;2023-09-19T04:47:54;13.63;;;3.03;;
30617;SDS011;17384;51.214;9.202;2023-09-19T04:50:21;8.55;;;3.55;;
30617;SDS011;17384;51.214;9.202;2023-09-19T04:52:51;9.02;;;2.63;;
30617;SDS011;17384;51.214;9.202;2023-09-19T04:55:17;6.50;;;3.10;;
30617;SDS011;17384;51.214;9.202;2023-09-19T04:57:47;6.45;;;2.78;;
30617;SDS011;17384;51.214;9.202;2023-09-19T05:00:17;11.82;;;3.03;;
30617;SDS011;17384;51.214;9.202;2023-09-19T05:02:44;7.85;;;2.50;;
30617;SDS011;17384;51.214;9.202;2023-09-19T05:05:11;9.23;;;3.00;;
30617;SDS011;17384;51.214;9.202;2023-09-19T05:07:41;9.73;;;2.80;;
30617;SDS011;17384;51.214;9.202;2023-09-19T05:10:07;8.65;;;2.95;;
30617;SDS011;17384;51.214;9.202;2023-09-19T05:12:34;5.75;;;2.20;;
30617;SDS011;17384;51.214;9.202;2023-09-19T05:15:03;9.48;;;3.53;;
30617;SDS011;17384;51.214;9.202;2023-09-19T05:17:32;10.57;;;3.00;;
30617;SDS011;17384;51.214;9.202;2023-09-19T05:19:58;11.63;;;2.90;;
30617;SDS011;17384;51.214;9.202;2023-09-19T05:22:31;12.40;;;3.10;;
30617;SDS011;17384;51.214;9.202;2023-09-19T05:24:57;8.10;;;3.00;;
30617;SDS011;17384;51.214;9.202;2023-09-19T05:27:23;9.57;;;3.20;;
30617;SDS011;17384;51.214;9.202;2023-09-19T05:29:49;7.50;;;3.08;;
30617;SDS011;17384;51.214;9.202;2023-09-19T05:32:18;8.00;;;3.35;;
30617;SDS011;17384;51.214;9.202;2023-09-19T05:34:44;9.32;;;3.63;;
30617;SDS011;17384;51.214;9.202;2023-09-19T05:37:10;6.05;;;2.83;;
30617;SDS011;17384;51.214;9.202;2023-09-19T05:39:36;10.65;;;2.95;;
30617;SDS011;17384;51.214;9.202;2023-09-19T05:42:02;10.50;;;3.53;;
30617;SDS011;17384;51.214;9.202;2023-09-19T05:44:28;9.40;;;3.28;;
30617;SDS011;17384;51.214;9.202;2023-09-19T05:46:54;11.27;;;3.08;;
30617;SDS011;17384;51.214;9.202;2023-09-19T05:49:22;14.85;;;3.60;;
30617;SDS011;17384;51.214;9.202;2023-09-19T05:51:47;11.70;;;3.75;;
30617;SDS011;17384;51.214;9.202;2023-09-19T05:54:13;10.55;;;3.72;;
30617;SDS011;17384;51.214;9.202;2023-09-19T05:56:38;14.55;;;3.55;;
30617;SDS011;17384;51.214;9.202;2023-09-19T05:59:04;7.38;;;3.25;;
30617;SDS011;17384;51.214;9.202;2023-09-19T06:01:30;7.90;;;3.08;;
30617;SDS011;17384;51.214;9.202;2023-09-19T06:03:58;11.93;;;3.35;;
30617;SDS011;17384;51.214;9.202;2023-09-19T06:06:25;12.68;;;4.03;;
30617;SDS011;17384;51.214;9.202;2023-09-19T06:08:51;11.48;;;3.53;;
30617;SDS011;17384;51.214;9.202;2023-09-19T06:11:17;14.35;;;3.72;;
30617;SDS011;17384;51.214;9.202;2023-09-19T06:13:45;17.42;;;4.20;;
30617;SDS011;17384;51.214;9.202;2023-09-19T06:16:12;16.67;;;4.40;;
30617;SDS011;17384;51.214;9.202;2023-09-19T06:18:38;11.75;;;4.03;;
30617;SDS011;17384;51.214;9.202;2023-09-19T06:21:03;14.15;;;3.70;;
30617;SDS011;17384;51.214;9.202;2023-09-19T06:23:32;9.05;;;3.90;;
30617;SDS011;17384;51.214;9.202;2023-09-19T06:25:59;4.85;;;2.90;;
30617;SDS011;17384;51.214;9.202;2023-09-19T06:28:24;8.63;;;3.03;;
30617;SDS011;17384;51.214;9.202;2023-09-19T06:30:53;15.05;;;3.88;;
30617;SDS011;17384;51.214;9.202;2023-09-19T06:33:22;12.02;;;4.00;;
30617;SDS011;17384;51.214;9.202;2023-09-19T06:35:47;7.68;;;3.40;;
30617;SDS011;17384;51.214;9.202;2023-09-19T06:38:13;11.10;;;3.70;;
30617;SDS011;17384;51.214;9.202;2023-09-19T06:40:40;18.98;;;3.47;;
30617;SDS011;17384;51.214;9.202;2023-09-19T06:43:09;12.77;;;3.97;;
30617;SDS011;17384;51.214;9.202;2023-09-19T06:45:35;11.57;;;3.88;;
30617;SDS011;17384;51.214;9.202;2023-09-19T06:48:01;13.15;;;3.97;;
30617;SDS011;17384;51.214;9.202;2023-09-19T06:50:28;10.98;;;4.28;;
30617;SDS011;17384;51.214;9.202;2023-09-19T06:52:56;13.25;;;4.75;;
30617;SDS011;17384;51.214;9.202;2023-09-19T06:55:24;11.23;;;3.90;;
30617;SDS011;17384;51.214;9.202;2023-09-19T06:57:53;10.48;;;3.67;;
30617;SDS011;17384;51.214;9.202;2023-09-19T07:00:19;11.82;;;4.20;;
30617;SDS011;17384;51.214;9.202;2023-09-19T07:02:55;15.55;;;4.03;;
30617;SDS011;17384;51.214;9.202;2023-09-19T07:05:21;11.38;;;3.28;;
30617;SDS011;17384;51.214;9.202;2023-09-19T07:07:47;14.63;;;4.22;;
30617;SDS011;17384;51.214;9.202;2023-09-19T07:10:13;12.07;;;3.47;;
30617;SDS011;17384;51.214;9.202;2023-09-19T07:12:39;15.30;;;3.40;;
30617;SDS011;17384;51.214;9.202;2023-09-19T07:15:06;10.57;;;3.70;;
30617;SDS011;17384;51.214;9.202;2023-09-19T07:17:32;11.30;;;3.22;;
30617;SDS011;17384;51.214;9.202;2023-09-19T07:19:58;12.13;;;3.60;;
30617;SDS011;17384;51.214;9.202;2023-09-19T07:22:24;13.90;;;3.58;;
30617;SDS011;17384;51.214;9.202;2023-09-19T07:24:51;14.15;;;3.58;;
30617;SDS011;17384;51.214;9.202;2023-09-19T07:27:17;16.55;;;3.92;;
30617;SDS011;17384;51.214;9.202;2023-09-19T07:29:42;11.02;;;3.30;;
30617;SDS011;17384;51.214;9.202;2023-09-19T07:32:08;9.48;;;3.20;;
30617;SDS011;17384;51.214;9.202;2023-09-19T07:34:35;12.18;;;3.58;;
30617;SDS011;17384;51.214;9.202;2023-09-19T07:37:01;10.50;;;3.15;;
30617;SDS011;17384;51.214;9.202;2023-09-19T07:39:27;15.85;;;3.28;;
30617;SDS011;17384;51.214;9.202;2023-09-19T07:41:53;9.98;;;3.30;;
30617;SDS011;17384;51.214;9.202;2023-09-19T07:44:19;9.68;;;3.10;;
30617;SDS011;17384;51.214;9.202;2023-09-19T07:46:45;13.50;;;3.33;;
30617;SDS011;17384;51.214;9.202;2023-09-19T07:49:10;14.80;;;2.63;;
30617;SDS011;17384;51.214;9.202;2023-09-19T07:51:36;11.15;;;2.90;;
30617;SDS011;17384;51.214;9.202;2023-09-19T07:54:02;13.02;;;2.80;;
30617;SDS011;17384;51.214;9.202;2023-09-19T07:56:27;14.70;;;2.55;;
30617;SDS011;17384;51.214;9.202;2023-09-19T07:58:56;14.35;;;2.53;;
30617;SDS011;17384;51.214;9.202;2023-09-19T08:01:22;10.20;;;2.60;;
30617;SDS011;17384;51.214;9.202;2023-09-19T08:03:49;11.27;;;2.72;;
30617;SDS011;17384;51.214;9.202;2023-09-19T08:06:14;13.05;;;3.45;;
30617;SDS011;17384;51.214;9.202;2023-09-19T08:08:40;8.75;;;2.47;;
30617;SDS011;17384;51.214;9.202;2023-09-19T08:11:06;5.63;;;2.78;;
30617;SDS011;17384;51.214;9.202;2023-09-19T08:13:40;7.30;;;2.58;;
30617;SDS011;17384;51.214;9.202;2023-09-19T08:16:11;10.73;;;2.33;;
30617;SDS011;17384;51.214;9.202;2023-09-19T08:18:37;6.38;;;2.35;;
30617;SDS011;17384;51.214;9.202;2023-09-19T08:21:05;14.88;;;3.50;;
30617;SDS011;17384;51.214;9.202;2023-09-19T08:23:35;11.30;;;3.08;;
30617;SDS011;17384;51.214;9.202;2023-09-19T08:26:01;8.23;;;2.80;;
30617;SDS011;17384;51.214;9.202;2023-09-19T08:28:31;13.52;;;2.25;;
30617;SDS011;17384;51.214;9.202;2023-09-19T08:31:00;10.95;;;2.65;;
30617;SDS011;17384;51.214;9.202;2023-09-19T08:33:31;12.85;;;2.30;;
30617;SDS011;17384;51.214;9.202;2023-09-19T08:35:58;7.43;;;2.55;;
30617;SDS011;17384;51.214;9.202;2023-09-19T08:38:23;18.55;;;2.67;;
30617;SDS011;17384;51.214;9.202;2023-09-19T08:40:49;7.68;;;2.53;;
30617;SDS011;17384;51.214;9.202;2023-09-19T08:43:14;7.82;;;2.28;;
30617;SDS011;17384;51.214;9.202;2023-09-19T08:45:40;9.45;;;2.35;;
30617;SDS011;17384;51.214;9.202;2023-09-19T08:50:31;9.68;;;2.25;;
30617;SDS011;17384;51.214;9.202;2023-09-19T08:56:36;13.93;;;2.22;;
30617;SDS011;17384;51.214;9.202;2023-09-19T09:02:21;7.18;;;2.33;;
30617;SDS011;17384;51.214;9.202;2023-09-19T09:04:48;10.60;;;2.53;;
30617;SDS011;17384;51.214;9.202;2023-09-19T09:07:15;8.40;;;2.50;;
30617;SDS011;17384;51.214;9.202;2023-09-19T09:09:44;10.35;;;2.15;;
30617;SDS011;17384;51.214;9.202;2023-09-19T09:12:13;15.25;;;2.33;;
30617;SDS011;17384;51.214;9.202;2023-09-19T09:14:45;9.27;;;2.38;;
30617;SDS011;17384;51.214;9.202;2023-09-19T09:17:13;14.27;;;3.30;;
30617;SDS011;17384;51.214;9.202;2023-09-19T09:19:39;7.85;;;1.95;;
30617;SDS011;17384;51.214;9.202;2023-09-19T09:22:09;12.82;;;2.10;;
30617;SDS011;17384;51.214;9.202;2023-09-19T09:24:36;6.32;;;2.30;;
30617;SDS011;17384;51.214;9.202;2023-09-19T09:27:04;12.27;;;2.58;;
30617;SDS011;17384;51.214;9.202;2023-09-19T09:34:51;17.60;;;3.00;;
30617;SDS011;17384;51.214;9.202;2023-09-19T09:37:19;12.10;;;2.65;;
30617;SDS011;17384;51.214;9.202;2023-09-19T09:39:53;16.75;;;2.78;;
30617;SDS011;17384;51.214;9.202;2023-09-19T09:42:37;10.10;;;2.63;;
30617;SDS011;17384;51.214;9.202;2023-09-19T09:45:22;15.13;;;2.92;;
30617;SDS011;17384;51.214;9.202;2023-09-19T09:47:58;10.73;;;2.50;;
30617;SDS011;17384;51.214;9.202;2023-09-19T09:50:39;12.40;;;2.20;;
30617;SDS011;17384;51.214;9.202;2023-09-19T09:53:22;9.88;;;2.38;;
30617;SDS011;17384;51.214;9.202;2023-09-19T09:56:06;14.48;;;2.83;;
30617;SDS011;17384;51.214;9.202;2023-09-19T09:58:50;7.25;;;2.35;;
30617;SDS011;17384;51.214;9.202;2023-09-19T10:01:21;7.80;;;2.20;;
30617;SDS011;17384;51.214;9.202;2023-09-19T10:03:51;15.68;;;2.97;;
30617;SDS011;17384;51.214;9.202;2023-09-19T10:06:22;9.98;;;3.13;;
30617;SDS011;17384;51.214;9.202;2023-09-19T10:09:07;14.68;;;3.08;;
30617;SDS011;17384;51.214;9.202;2023-09-19T10:11:43;8.50;;;2.45;;
30617;SDS011;17384;51.214;9.202;2023-09-19T10:14:26;10.73;;;2.45;;
30617;SDS011;17384;51.214;9.202;2023-09-19T10:16:56;11.70;;;3.47;;
30617;SDS011;17384;51.214;9.202;2023-09-19T10:19:53;9.63;;;2.67;;
30617;SDS011;17384;51.214;9.202;2023-09-19T10:24:49;15.35;;;3.35;;
30617;SDS011;17384;51.214;9.202;2023-09-19T10:27:18;17.23;;;3.65;;
30617;SDS011;17384;51.214;9.202;2023-09-19T10:29:45;14.60;;;2.85;;
30617;SDS011;17384;51.214;9.202;2023-09-19T10:32:19;13.40;;;2.45;;
30617;SDS011;17384;51.214;9.202;2023-09-19T10:34:49;8.65;;;2.65;;
30617;SDS011;17384;51.214;9.202;2023-09-19T10:37:17;14.10;;;3.08;;
30617;SDS011;17384;51.214;9.202;2023-09-19T10:39:47;11.02;;;3.85;;
30617;SDS011;17384;51.214;9.202;2023-09-19T10:42:15;14.75;;;2.40;;
30617;SDS011;17384;51.214;9.202;2023-09-19T10:44:45;6.13;;;2.08;;
30617;SDS011;17384;51.214;9.202;2023-09-19T10:47:12;10.95;;;3.28;;
30617;SDS011;17384;51.214;9.202;2023-09-19T10:49:45;10.75;;;2.67;;
30617;SDS011;17384;51.214;9.202;2023-09-19T10:52:12;10.85;;;3.00;;
30617;SDS011;17384;51.214;9.202;2023-09-19T10:54:45;13.17;;;2.53;;
30617;SDS011;17384;51.214;9.202;2023-09-19T10:57:25;8.13;;;2.83;;
30617;SDS011;17384;51.214;9.202;2023-09-19T11:00:05;14.90;;;2.55;;
30617;SDS011;17384;51.214;9.202;2023-09-19T11:08:51;12.18;;;3.45;;
30617;SDS011;17384;51.214;9.202;2023-09-19T11:11:46;10.90;;;2.70;;
30617;SDS011;17384;51.214;9.202;2023-09-19T11:30:52;9.40;;;2.63;;
30617;SDS011;17384;51.214;9.202;2023-09-19T11:33:22;9.95;;;2.38;;
30617;SDS011;17384;51.214;9.202;2023-09-19T11:41:51;10.05;;;2.90;;
30617;SDS011;17384;51.214;9.202;2023-09-19T11:49:40;9.23;;;2.78;;
30617;SDS011;17384;51.214;9.202;2023-09-19T11:52:05;10.13;;;2.63;;
30617;SDS011;17384;51.214;9.202;2023-09-19T11:54:33;8.55;;;2.47;;
30617;SDS011;17384;51.214;9.202;2023-09-19T11:57:01;6.00;;;1.85;;
30617;SDS011;17384;51.214;9.202;2023-09-19T11:59:28;15.32;;;2.58;;
30617;SDS011;17384;51.214;9.202;2023-09-19T12:01:55;6.38;;;2.17;;
30617;SDS011;17384;51.214;9.202;2023-09-19T12:04:39;11.93;;;2.72;;
30617;SDS011;17384;51.214;9.202;2023-09-19T12:07:14;9.13;;;2.28;;
30617;SDS011;17384;51.214;9.202;2023-09-19T12:09:44;15.90;;;2.72;;
30617;SDS011;17384;51.214;9.202;2023-09-19T12:12:18;14.30;;;2.42;;
30617;SDS011;17384;51.214;9.202;2023-09-19T12:14:49;16.80;;;3.53;;
30617;SDS011;17384;51.214;9.202;2023-09-19T12:17:18;8.93;;;2.55;;
30617;SDS011;17384;51.214;9.202;2023-09-19T12:19:50;7.68;;;2.53;;
30617;SDS011;17384;51.214;9.202;2023-09-19T12:22:19;15.30;;;2.60;;
30617;SDS011;17384;51.214;9.202;2023-09-19T12:24:48;8.45;;;2.10;;
30617;SDS011;17384;51.214;9.202;2023-09-19T12:27:15;10.20;;;2.22;;
30617;SDS011;17384;51.214;9.202;2023-09-19T12:29:43;6.18;;;2.00;;
30617;SDS011;17384;51.214;9.202;2023-09-19T12:32:10;11.05;;;2.65;;
30617;SDS011;17384;51.214;9.202;2023-09-19T12:34:36;8.90;;;2.30;;
30617;SDS011;17384;51.214;9.202;2023-09-19T12:39:45;8.07;;;1.63;;
30617;SDS011;17384;51.214;9.202;2023-09-19T12:42:14;10.68;;;2.05;;
30617;SDS011;17384;51.214;9.202;2023-09-19T12:44:44;5.65;;;1.70;;
30617;SDS011;17384;51.214;9.202;2023-09-19T12:47:11;14.40;;;2.30;;
30617;SDS011;17384;51.214;9.202;2023-09-19T12:52:38;9.02;;;1.98;;
30617;SDS011;17384;51.214;9.202;2023-09-19T12:55:05;8.35;;;1.88;;
30617;SDS011;17384;51.214;9.202;2023-09-19T12:57:33;5.30;;;2.13;;
30617;SDS011;17384;51.214;9.202;2023-09-19T13:00:02;6.50;;;2.00;;
30617;SDS011;17384;51.214;9.202;2023-09-19T13:02:31;7.20;;;2.00;;
30617;SDS011;17384;51.214;9.202;2023-09-19T13:04:57;8.02;;;2.50;;
30617;SDS011;17384;51.214;9.202;2023-09-19T13:07:40;8.02;;;2.85;;
30617;SDS011;17384;51.214;9.202;2023-09-19T13:10:10;7.05;;;1.70;;
30617;SDS011;17384;51.214;9.202;2023-09-19T13:12:38;10.02;;;2.13;;
30617;SDS011;17384;51.214;9.202;2023-09-19T13:15:07;13.38;;;2.25;;
30617;SDS011;17384;51.214;9.202;2023-09-19T13:17:45;7.20;;;2.03;;
30617;SDS011;17384;51.214;9.202;2023-09-19T13:20:24;8.02;;;2.53;;
30617;SDS011;17384;51.214;9.202;2023-09-19T13:22:52;7.75;;;2.13;;
30617;SDS011;17384;51.214;9.202;2023-09-19T13:25:20;4.90;;;1.55;;
30617;SDS011;17384;51.214;9.202;2023-09-19T13:27:47;10.93;;;2.97;;
30617;SDS011;17384;51.214;9.202;2023-09-19T13:30:16;10.32;;;2.00;;
30617;SDS011;17384;51.214;9.202;2023-09-19T13:32:42;8.40;;;2.03;;
30617;SDS011;17384;51.214;9.202;2023-09-19T13:35:08;7.00;;;2.08;;
30617;SDS011;17384;51.214;9.202;2023-09-19T13:37:35;5.43;;;1.90;;
30617;SDS011;17384;51.214;9.202;2023-09-19T13:40:06;12.85;;;2.28;;
30617;SDS011;17384;51.214;9.202;2023-09-19T13:42:35;14.68;;;3.20;;
30617;SDS011;17384;51.214;9.202;2023-09-19T13:45:02;8.25;;;2.45;;
30617;SDS011;17384;51.214;9.202;2023-09-19T13:47:29;8.50;;;3.00;;
30617;SDS011;17384;51.214;9.202;2023-09-19T13:49:55;6.95;;;2.28;;
30617;SDS011;17384;51.214;9.202;2023-09-19T13:52:21;7.95;;;2.80;;
30617;SDS011;17384;51.214;9.202;2023-09-19T13:54:51;7.30;;;1.75;;
30617;SDS011;17384;51.214;9.202;2023-09-19T13:57:18;10.30;;;2.85;;
30617;SDS011;17384;51.214;9.202;2023-09-19T13:59:43;5.72;;;2.10;;
30617;SDS011;17384;51.214;9.202;2023-09-19T14:02:09;11.10;;;2.58;;
30617;SDS011;17384;51.214;9.202;2023-09-19T14:04:34;7.93;;;1.95;;
30617;SDS011;17384;51.214;9.202;2023-09-19T14:07:00;6.45;;;2.15;;
30617;SDS011;17384;51.214;9.202;2023-09-19T14:09:27;14.10;;;4.05;;
30617;SDS011;17384;51.214;9.202;2023-09-19T14:11:52;11.45;;;2.55;;
30617;SDS011;17384;51.214;9.202;2023-09-19T14:14:18;12.68;;;2.65;;
30617;SDS011;17384;51.214;9.202;2023-09-19T14:16:45;7.70;;;2.65;;
30617;SDS011;17384;51.214;9.202;2023-09-19T14:19:11;7.25;;;2.42;;
30617;SDS011;17384;51.214;9.202;2023-09-19T14:21:36;10.68;;;2.55;;
30617;SDS011;17384;51.214;9.202;2023-09-19T14:24:04;7.05;;;2.20;;
30617;SDS011;17384;51.214;9.202;2023-09-19T14:26:34;8.23;;;2.30;;
30617;SDS011;17384;51.214;9.202;2023-09-19T14:29:00;9.10;;;2.28;;
30617;SDS011;17384;51.214;9.202;2023-09-19T14:31:25;6.90;;;2.38;;
30617;SDS011;17384;51.214;9.202;2023-09-19T14:33:53;11.20;;;2.85;;
30617;SDS011;17384;51.214;9.202;2023-09-19T14:36:21;6.38;;;2.47;;
30617;SDS011;17384;51.214;9.202;2023-09-19T14:38:46;7.30;;;2.88;;
30617;SDS011;17384;51.214;9.202;2023-09-19T14:41:12;11.77;;;3.00;;
30617;SDS011;17384;51.214;9.202;2023-09-19T14:43:38;7.93;;;2.15;;
30617;SDS011;17384;51.214;9.202;2023-09-19T14:46:03;12.45;;;3.22;;
30617;SDS011;17384;51.214;9.202;2023-09-19T14:48:29;5.70;;;2.22;;
30617;SDS011;17384;51.214;9.202;2023-09-19T14:50:54;6.70;;;2.17;;
30617;SDS011;17384;51.214;9.202;2023-09-19T14:53:21;11.48;;;2.30;;
30617;SDS011;17384;51.214;9.202;2023-09-19T14:55:47;12.82;;;3.13;;
30617;SDS011;17384;51.214;9.202;2023-09-19T14:58:17;8.52;;;2.65;;
30617;SDS011;17384;51.214;9.202;2023-09-19T15:00:43;9.63;;;2.13;;
30617;SDS011;17384;51.214;9.202;2023-09-19T15:03:10;5.10;;;1.90;;
30617;SDS011;17384;51.214;9.202;2023-09-19T15:05:36;7.55;;;2.47;;
30617;SDS011;17384;51.214;9.202;2023-09-19T15:08:02;8.27;;;2.20;;
30617;SDS011;17384;51.214;9.202;2023-09-19T15:10:28;11.75;;;2.45;;
30617;SDS011;17384;51.214;9.202;2023-09-19T15:12:53;7.85;;;2.20;;
30617;SDS011;17384;51.214;9.202;2023-09-19T15:15:18;11.43;;;2.25;;
30617;SDS011;17384;51.214;9.202;2023-09-19T15:17:44;11.07;;;2.35;;
30617;SDS011;17384;51.214;9.202;2023-09-19T15:20:09;7.85;;;2.17;;
30617;SDS011;17384;51.214;9.202;2023-09-19T15:22:38;5.68;;;2.00;;
30617;SDS011;17384;51.214;9.202;2023-09-19T15:25:05;5.97;;;1.80;;
30617;SDS011;17384;51.214;9.202;2023-09-19T15:27:30;8.35;;;2.30;;
30617;SDS011;17384;51.214;9.202;2023-09-19T15:29:57;7.80;;;3.13;;
30617;SDS011;17384;51.214;9.202;2023-09-19T15:32:24;8.55;;;3.45;;
30617;SDS011;17384;51.214;9.202;2023-09-19T15:34:50;6.22;;;2.40;;
30617;SDS011;17384;51.214;9.202;2023-09-19T15:37:15;6.57;;;1.95;;
30617;SDS011;17384;51.214;9.202;2023-09-19T15:39:41;6.82;;;1.95;;
30617;SDS011;17384;51.214;9.202;2023-09-19T15:42:08;8.10;;;1.88;;
30617;SDS011;17384;51.214;9.202;2023-09-19T15:44:33;4.78;;;2.28;;
30617;SDS011;17384;51.214;9.202;2023-09-19T15:46:59;6.13;;;2.00;;
30617;SDS011;17384;51.214;9.202;2023-09-19T15:49:24;6.53;;;1.92;;
30617;SDS011;17384;51.214;9.202;2023-09-19T15:51:50;5.43;;;2.03;;
30617;SDS011;17384;51.214;9.202;2023-09-19T15:54:16;8.50;;;2.67;;
30617;SDS011;17384;51.214;9.202;2023-09-19T15:56:43;8.30;;;1.92;;
30617;SDS011;17384;51.214;9.202;2023-09-19T15:59:09;8.30;;;2.05;;
30617;SDS011;17384;51.214;9.202;2023-09-19T16:01:37;8.07;;;1.98;;
30617;SDS011;17384;51.214;9.202;2023-09-19T16:04:13;6.97;;;1.73;;